Time;durP1;ratioP1;P1;durP2;ratioP2;P2;SDS_P1;SDS_P2;PMS_P1;PMS_P2;Temp;Humidity;BMP_temperature;BMP_pressure;BME280_temperature;BME280_humidity;BME280_pressure;Samples;Min_cycle;Max_cycle;Signal;HPM_P1;HPM_P2
2021/05/16 00:00:15;;;;;;;19.20;2.00;;;;;;;;;;5006886;28;20109;-64
2021/05/16 00:02:40;;;;;;;12.55;2.25;;;;;;;;;;5008270;28;20382;-64
2021/05/16 00:05:07;;;;;;;13.18;3.58;;;;;;;;;;5007848;28;20022;-62
2021/05/16 00:07:32;;;;;;;8.50;1.52;;;;;;;;;;5007621;28;20029;-65
2021/05/16 00:09:57;;;;;;;10.90;2.28;;;;;;;;;;4990534;28;20029;-64
2021/05/16 00:12:22;;;;;;;16.90;2.23;;;;;;;;;;5008170;28;20480;-63
2021/05/16 00:14:48;;;;;;;14.50;2.83;;;;;;;;;;5008197;28;20284;-65
2021/05/16 00:17:15;;;;;;;10.27;2.20;;;;;;;;;;5037352;23;20677;-68
2021/05/16 00:19:40;;;;;;;16.63;2.58;;;;;;;;;;5035586;28;20111;-69
2021/05/16 00:22:06;;;;;;;13.93;2.22;;;;;;;;;;5037402;28;20170;-69
2021/05/16 00:24:31;;;;;;;10.38;1.60;;;;;;;;;;5034948;28;20021;-66
2021/05/16 00:26:56;;;;;;;14.07;1.95;;;;;;;;;;5030901;28;20021;-69
2021/05/16 00:29:22;;;;;;;14.40;2.22;;;;;;;;;;5030451;28;20014;-67
2021/05/16 00:31:47;;;;;;;9.10;3.10;;;;;;;;;;5015130;28;20029;-69
2021/05/16 00:34:12;;;;;;;5.20;1.80;;;;;;;;;;5021529;28;20014;-69
2021/05/16 00:36:37;;;;;;;9.63;1.90;;;;;;;;;;5036594;28;20028;-68
2021/05/16 00:39:04;;;;;;;10.77;2.53;;;;;;;;;;5034336;28;20280;-66
2021/05/16 00:41:29;;;;;;;8.20;1.73;;;;;;;;;;5036161;28;20783;-69
2021/05/16 00:43:54;;;;;;;13.90;2.67;;;;;;;;;;5033454;28;20033;-66
2021/05/16 00:46:19;;;;;;;15.98;2.08;;;;;;;;;;5034514;28;20112;-67
2021/05/16 00:48:44;;;;;;;12.47;1.90;;;;;;;;;;5037622;28;20024;-68
2021/05/16 00:51:11;;;;;;;11.63;1.67;;;;;;;;;;5032833;28;20631;-69
2021/05/16 00:53:36;;;;;;;8.70;1.80;;;;;;;;;;5034245;28;20013;-68
2021/05/16 00:56:01;;;;;;;10.50;2.08;;;;;;;;;;5033153;28;20028;-66
2021/05/16 00:58:27;;;;;;;12.25;1.88;;;;;;;;;;5032588;28;20546;-68
2021/05/16 01:00:52;;;;;;;1.87;0.77;;;;;;;;;;5032300;28;20037;-70
2021/05/16 01:03:17;;;;;;;12.65;2.60;;;;;;;;;;5032099;28;20294;-66
2021/05/16 01:05:43;;;;;;;11.02;2.30;;;;;;;;;;5032267;28;20730;-66
2021/05/16 01:08:08;;;;;;;13.38;2.20;;;;;;;;;;5035793;28;20025;-69
2021/05/16 01:10:34;;;;;;;11.88;2.40;;;;;;;;;;5013580;28;20107;-67
2021/05/16 01:12:59;;;;;;;13.43;2.28;;;;;;;;;;5038961;28;20125;-68
2021/05/16 01:15:26;;;;;;;10.60;2.67;;;;;;;;;;5033970;28;20136;-68
2021/05/16 01:17:51;;;;;;;9.20;2.00;;;;;;;;;;5031731;28;20079;-69
2021/05/16 01:20:23;;;;;;;19.13;2.95;;;;;;;;;;5034915;28;20425;-69
2021/05/16 01:22:52;;;;;;;9.20;1.70;;;;;;;;;;5034830;28;20025;-69
2021/05/16 01:25:18;;;;;;;8.40;1.50;;;;;;;;;;5017193;28;20144;-69
2021/05/16 01:27:44;;;;;;;8.90;2.25;;;;;;;;;;5031066;28;20436;-69
2021/05/16 01:30:09;;;;;;;9.60;1.88;;;;;;;;;;5030361;28;20029;-69
2021/05/16 01:32:34;;;;;;;14.57;2.42;;;;;;;;;;5033863;28;20489;-69
2021/05/16 01:35:00;;;;;;;15.88;2.47;;;;;;;;;;5034664;28;20477;-69
2021/05/16 01:37:25;;;;;;;8.85;2.10;;;;;;;;;;5029683;28;20519;-69
2021/05/16 01:39:50;;;;;;;16.38;2.50;;;;;;;;;;5034550;28;20473;-67
2021/05/16 01:42:17;;;;;;;11.60;1.90;;;;;;;;;;5034487;28;20027;-69
2021/05/16 01:44:42;;;;;;;11.95;2.05;;;;;;;;;;5032313;28;20285;-68
2021/05/16 01:47:08;;;;;;;16.80;2.15;;;;;;;;;;5033800;28;20600;-67
2021/05/16 01:49:43;;;;;;;16.48;2.30;;;;;;;;;;5035271;28;20036;-69
2021/05/16 01:52:09;;;;;;;16.05;1.85;;;;;;;;;;5034976;28;20032;-68
2021/05/16 01:54:34;;;;;;;9.95;2.38;;;;;;;;;;5031314;28;20032;-69
2021/05/16 01:57:01;;;;;;;9.55;1.65;;;;;;;;;;5032824;28;20025;-67
2021/05/16 01:59:26;;;;;;;15.40;2.38;;;;;;;;;;5028307;28;20034;-67
2021/05/16 02:01:51;;;;;;;16.80;2.42;;;;;;;;;;5034460;28;20024;-68
2021/05/16 02:04:17;;;;;;;14.15;2.38;;;;;;;;;;5032316;28;20033;-68
2021/05/16 02:06:42;;;;;;;12.63;1.88;;;;;;;;;;5031150;28;20041;-68
2021/05/16 02:09:07;;;;;;;12.32;4.15;;;;;;;;;;5034656;28;20021;-68
2021/05/16 02:11:33;;;;;;;9.75;3.85;;;;;;;;;;5033343;28;20505;-66
2021/05/16 02:13:58;;;;;;;16.45;2.20;;;;;;;;;;5035071;28;20110;-67
2021/05/16 02:16:23;;;;;;;15.90;2.28;;;;;;;;;;5034207;28;20522;-66
2021/05/16 02:18:48;;;;;;;13.50;1.77;;;;;;;;;;5032819;28;20025;-68
2021/05/16 02:21:14;;;;;;;9.82;1.75;;;;;;;;;;5034532;28;20032;-67
2021/05/16 02:23:40;;;;;;;14.10;2.20;;;;;;;;;;5029186;28;20529;-67
2021/05/16 02:26:05;;;;;;;18.80;2.13;;;;;;;;;;5032957;28;20470;-67
2021/05/16 02:28:31;;;;;;;15.93;2.10;;;;;;;;;;5034319;28;20103;-68
2021/05/16 02:30:56;;;;;;;7.05;1.95;;;;;;;;;;5032695;28;20021;-68
2021/05/16 02:33:21;;;;;;;13.55;1.85;;;;;;;;;;5023551;28;20021;-67
2021/05/16 02:35:46;;;;;;;14.77;2.33;;;;;;;;;;5034918;28;20442;-68
2021/05/16 02:38:11;;;;;;;4.97;1.17;;;;;;;;;;5036663;28;20032;-67
2021/05/16 02:40:37;;;;;;;16.97;2.33;;;;;;;;;;5029916;28;20283;-68
2021/05/16 02:43:02;;;;;;;14.80;2.25;;;;;;;;;;5033664;28;20672;-68
2021/05/16 02:45:27;;;;;;;18.02;2.72;;;;;;;;;;5035947;28;20582;-67
2021/05/16 02:47:52;;;;;;;12.23;2.67;;;;;;;;;;5032221;28;20400;-67
2021/05/16 02:50:18;;;;;;;13.38;2.22;;;;;;;;;;5036192;28;20021;-68
2021/05/16 02:52:43;;;;;;;14.40;1.38;;;;;;;;;;5031801;28;20393;-68
2021/05/16 02:55:08;;;;;;;17.38;2.67;;;;;;;;;;5037250;28;20151;-68
2021/05/16 02:57:34;;;;;;;19.40;2.60;;;;;;;;;;5032480;28;20032;-68
2021/05/16 02:59:59;;;;;;;11.13;2.50;;;;;;;;;;5016764;28;20020;-68
2021/05/16 03:02:24;;;;;;;19.70;2.75;;;;;;;;;;5035018;28;20071;-68
2021/05/16 03:04:50;;;;;;;10.98;2.53;;;;;;;;;;5032619;28;20017;-69
2021/05/16 03:07:15;;;;;;;12.57;2.60;;;;;;;;;;5034063;28;20039;-67
2021/05/16 03:09:40;;;;;;;19.00;2.22;;;;;;;;;;5030304;28;20025;-68
2021/05/16 03:12:06;;;;;;;13.63;2.30;;;;;;;;;;5036752;28;20021;-68
2021/05/16 03:14:31;;;;;;;7.40;1.85;;;;;;;;;;5030680;28;20041;-66
2021/05/16 03:16:58;;;;;;;8.30;2.00;;;;;;;;;;5031702;28;20082;-68
2021/05/16 03:19:23;;;;;;;11.27;2.35;;;;;;;;;;5034978;28;20028;-65
2021/05/16 03:21:49;;;;;;;17.48;2.45;;;;;;;;;;5012019;28;20025;-68
2021/05/16 03:24:14;;;;;;;10.90;3.33;;;;;;;;;;5033958;28;20034;-66
2021/05/16 03:26:41;;;;;;;17.48;2.30;;;;;;;;;;5028656;28;20303;-67
2021/05/16 03:29:06;;;;;;;11.85;2.67;;;;;;;;;;5035703;28;20044;-66
2021/05/16 03:31:31;;;;;;;12.27;2.80;;;;;;;;;;5027263;28;20068;-68
2021/05/16 03:33:57;;;;;;;20.15;3.13;;;;;;;;;;5002019;28;20026;-67
2021/05/16 03:36:22;;;;;;;26.83;2.83;;;;;;;;;;5027395;28;20044;-66
2021/05/16 03:38:47;;;;;;;13.73;2.42;;;;;;;;;;5032201;28;20022;-67
2021/05/16 03:41:12;;;;;;;5.72;2.95;;;;;;;;;;5037240;28;20017;-66
2021/05/16 03:43:37;;;;;;;13.23;1.60;;;;;;;;;;5033978;28;20036;-68
2021/05/16 03:46:03;;;;;;;11.50;1.90;;;;;;;;;;5033759;28;20486;-68
2021/05/16 03:48:28;;;;;;;15.83;3.07;;;;;;;;;;5036198;28;20091;-68
2021/05/16 03:50:53;;;;;;;15.10;2.72;;;;;;;;;;5029140;28;20371;-68
2021/05/16 03:53:18;;;;;;;8.13;2.42;;;;;;;;;;5024185;28;20414;-67
2021/05/16 03:55:44;;;;;;;8.07;1.55;;;;;;;;;;5026378;28;20021;-68
2021/05/16 03:58:09;;;;;;;6.25;1.58;;;;;;;;;;5025286;28;20457;-67
2021/05/16 04:00:34;;;;;;;4.63;1.50;;;;;;;;;;5027668;28;20575;-68
2021/05/16 04:02:59;;;;;;;17.10;3.83;;;;;;;;;;5027380;28;20020;-68
2021/05/16 04:05:24;;;;;;;7.85;2.47;;;;;;;;;;5020705;28;20288;-69
2021/05/16 04:07:50;;;;;;;6.13;1.70;;;;;;;;;;5027414;28;20022;-66
2021/05/16 04:10:15;;;;;;;12.95;1.90;;;;;;;;;;5008582;28;20080;-68
2021/05/16 04:12:41;;;;;;;8.45;2.40;;;;;;;;;;5026103;28;20103;-68
2021/05/16 04:15:07;;;;;;;9.32;2.00;;;;;;;;;;5031147;28;20104;-67
2021/05/16 04:17:32;;;;;;;18.00;3.47;;;;;;;;;;5029292;28;20160;-67
2021/05/16 04:19:57;;;;;;;10.02;2.83;;;;;;;;;;5030086;28;20112;-65
2021/05/16 04:22:23;;;;;;;12.45;2.45;;;;;;;;;;5032528;28;20064;-68
2021/05/16 04:24:48;;;;;;;17.45;2.17;;;;;;;;;;5033623;28;20100;-68
2021/05/16 04:27:13;;;;;;;10.52;1.80;;;;;;;;;;5030571;28;20025;-67
2021/05/16 04:29:38;;;;;;;14.20;2.00;;;;;;;;;;5034377;28;20119;-68
2021/05/16 04:32:04;;;;;;;9.50;3.78;;;;;;;;;;5015131;28;20027;-68
2021/05/16 04:34:29;;;;;;;11.00;1.98;;;;;;;;;;5033676;28;20025;-67
2021/05/16 04:36:54;;;;;;;11.20;2.10;;;;;;;;;;5028562;28;20079;-68
2021/05/16 04:39:20;;;;;;;9.37;2.00;;;;;;;;;;5027758;28;20556;-66
2021/05/16 04:41:45;;;;;;;8.63;2.30;;;;;;;;;;5036378;28;20260;-68
2021/05/16 04:44:10;;;;;;;5.97;1.73;;;;;;;;;;5015525;28;20018;-69
2021/05/16 04:46:35;;;;;;;9.07;1.48;;;;;;;;;;5031095;28;20025;-68
2021/05/16 04:49:00;;;;;;;9.10;1.70;;;;;;;;;;5031621;28;21437;-65
2021/05/16 04:51:26;;;;;;;13.02;2.15;;;;;;;;;;5029164;28;20057;-68
2021/05/16 04:53:51;;;;;;;12.43;2.42;;;;;;;;;;5030480;28;20037;-67
2021/05/16 04:56:17;;;;;;;3.67;0.93;;;;;;;;;;5033771;28;20025;-66
2021/05/16 04:58:42;;;;;;;2.63;0.73;;;;;;;;;;5031143;28;20728;-68
2021/05/16 05:01:07;;;;;;;3.10;1.02;;;;;;;;;;5034381;28;20040;-67
2021/05/16 05:03:33;;;;;;;7.32;1.77;;;;;;;;;;5035166;28;20025;-67
2021/05/16 05:05:59;;;;;;;2.33;1.15;;;;;;;;;;5032470;28;20013;-67
2021/05/16 05:08:25;;;;;;;4.28;1.13;;;;;;;;;;5038721;28;20017;-68
2021/05/16 05:10:50;;;;;;;5.28;1.80;;;;;;;;;;5034869;28;20025;-68
2021/05/16 05:13:16;;;;;;;16.92;2.42;;;;;;;;;;5017408;28;20029;-67
2021/05/16 05:15:41;;;;;;;9.50;2.17;;;;;;;;;;5032124;28;20022;-68
2021/05/16 05:18:06;;;;;;;8.10;1.35;;;;;;;;;;5033722;28;20036;-68
2021/05/16 05:20:32;;;;;;;8.13;2.33;;;;;;;;;;5035719;28;20105;-67
2021/05/16 05:22:57;;;;;;;7.95;2.92;;;;;;;;;;5031253;28;20136;-68
2021/05/16 05:25:22;;;;;;;8.98;1.35;;;;;;;;;;5036566;28;20049;-67
2021/05/16 05:27:48;;;;;;;2.90;0.90;;;;;;;;;;5033528;28;20021;-68
2021/05/16 05:30:13;;;;;;;6.30;1.75;;;;;;;;;;5034551;28;20025;-68
2021/05/16 05:32:38;;;;;;;1.88;1.13;;;;;;;;;;5032032;28;20493;-68
2021/05/16 05:35:04;;;;;;;6.40;2.00;;;;;;;;;;5034733;28;20017;-68
2021/05/16 05:37:29;;;;;;;2.38;0.90;;;;;;;;;;5032955;28;20486;-68
2021/05/16 05:39:55;;;;;;;9.77;2.10;;;;;;;;;;5036012;28;20017;-67
2021/05/16 05:42:20;;;;;;;4.25;1.50;;;;;;;;;;5031710;28;20029;-67
2021/05/16 05:44:46;;;;;;;10.68;2.53;;;;;;;;;;5034205;28;20034;-69
2021/05/16 05:47:11;;;;;;;13.68;2.22;;;;;;;;;;5035855;28;20022;-67
2021/05/16 05:49:37;;;;;;;4.50;1.00;;;;;;;;;;5033912;28;20103;-67
2021/05/16 05:52:03;;;;;;;14.40;1.98;;;;;;;;;;5035179;28;20464;-68
2021/05/16 05:54:28;;;;;;;6.00;1.77;;;;;;;;;;5033280;28;20021;-68
2021/05/16 05:56:53;;;;;;;6.37;1.53;;;;;;;;;;5031176;28;20031;-66
2021/05/16 05:59:18;;;;;;;10.13;1.57;;;;;;;;;;5035689;28;20259;-68
2021/05/16 06:01:43;;;;;;;4.80;1.63;;;;;;;;;;5024337;28;20764;-68
2021/05/16 06:04:08;;;;;;;14.65;2.35;;;;;;;;;;5029730;28;20013;-68
2021/05/16 06:06:34;;;;;;;17.87;2.57;;;;;;;;;;5016421;28;20017;-67
2021/05/16 06:08:59;;;;;;;6.30;1.88;;;;;;;;;;5024473;28;20276;-68
2021/05/16 06:11:24;;;;;;;12.48;2.10;;;;;;;;;;5030994;28;20653;-68
2021/05/16 06:13:49;;;;;;;10.07;2.40;;;;;;;;;;5031144;28;20033;-68
2021/05/16 06:16:14;;;;;;;8.27;2.25;;;;;;;;;;5030937;28;20012;-66
2021/05/16 06:18:40;;;;;;;15.07;2.28;;;;;;;;;;5031625;28;20397;-66
2021/05/16 06:21:05;;;;;;;9.55;2.85;;;;;;;;;;5025777;28;20029;-67
2021/05/16 06:23:43;;;;;;;8.70;1.90;;;;;;;;;;5022652;28;20021;-68
2021/05/16 06:26:08;;;;;;;10.73;2.13;;;;;;;;;;5000349;28;20372;-67
2021/05/16 06:28:33;;;;;;;11.98;2.78;;;;;;;;;;5026717;28;20850;-68
2021/05/16 06:30:58;;;;;;;10.77;2.80;;;;;;;;;;5028319;28;20568;-67
2021/05/16 06:33:23;;;;;;;8.60;2.20;;;;;;;;;;5030604;28;21492;-68
2021/05/16 06:35:49;;;;;;;9.10;1.93;;;;;;;;;;5069833;22;20036;-64
2021/05/16 06:38:15;;;;;;;10.93;1.55;;;;;;;;;;5025758;28;20389;-66
2021/05/16 06:40:40;;;;;;;14.25;2.97;;;;;;;;;;5027703;28;20135;-66
2021/05/16 06:43:06;;;;;;;20.10;4.13;;;;;;;;;;5027548;28;20506;-64
2021/05/16 06:45:31;;;;;;;11.18;3.00;;;;;;;;;;5033190;28;20275;-66
2021/05/16 06:47:57;;;;;;;13.32;4.07;;;;;;;;;;5027509;28;20025;-67
2021/05/16 06:50:22;;;;;;;12.52;2.75;;;;;;;;;;5028836;28;20017;-64
2021/05/16 06:52:47;;;;;;;14.25;3.95;;;;;;;;;;5029348;28;20053;-64
2021/05/16 06:55:13;;;;;;;9.80;3.30;;;;;;;;;;5026250;28;20108;-64
2021/05/16 06:57:41;;;;;;;17.17;3.67;;;;;;;;;;5029032;28;20752;-64
2021/05/16 07:00:07;;;;;;;15.30;3.85;;;;;;;;;;5026484;28;20025;-65
2021/05/16 07:02:32;;;;;;;19.38;4.10;;;;;;;;;;5024758;28;20017;-65
2021/05/16 07:04:57;;;;;;;18.80;4.00;;;;;;;;;;5027816;28;20465;-67
2021/05/16 07:07:23;;;;;;;12.33;2.63;;;;;;;;;;5022804;28;20018;-66
2021/05/16 07:09:48;;;;;;;19.42;3.90;;;;;;;;;;5027354;28;20355;-65
2021/05/16 07:12:14;;;;;;;18.50;3.35;;;;;;;;;;5026509;28;20105;-66
2021/05/16 07:14:39;;;;;;;11.77;2.42;;;;;;;;;;5027634;28;20486;-64
2021/05/16 07:17:04;;;;;;;13.77;2.40;;;;;;;;;;5027738;28;20041;-65
2021/05/16 07:19:29;;;;;;;16.60;2.65;;;;;;;;;;5028107;28;20017;-64
2021/05/16 07:21:54;;;;;;;11.60;2.50;;;;;;;;;;5028136;28;20446;-65
2021/05/16 07:24:20;;;;;;;11.55;2.45;;;;;;;;;;5027611;28;20017;-65
2021/05/16 07:26:45;;;;;;;14.25;2.05;;;;;;;;;;5027157;28;20021;-63
2021/05/16 07:29:10;;;;;;;9.77;2.35;;;;;;;;;;5027711;28;20029;-66
2021/05/16 07:31:35;;;;;;;16.88;2.88;;;;;;;;;;5027597;28;20123;-64
2021/05/16 07:34:00;;;;;;;11.67;2.97;;;;;;;;;;5027671;28;20478;-66
2021/05/16 07:36:26;;;;;;;16.75;2.67;;;;;;;;;;5008363;28;20283;-65
2021/05/16 07:38:51;;;;;;;12.55;2.38;;;;;;;;;;5025346;28;20104;-65
2021/05/16 07:41:16;;;;;;;9.90;2.50;;;;;;;;;;5027630;28;20018;-65
2021/05/16 07:43:41;;;;;;;12.97;4.33;;;;;;;;;;5026456;28;20028;-66
2021/05/16 07:46:07;;;;;;;11.80;3.05;;;;;;;;;;5028279;28;20346;-65
2021/05/16 07:48:32;;;;;;;9.02;2.85;;;;;;;;;;5018852;28;20018;-64
2021/05/16 07:50:59;;;;;;;5.60;1.73;;;;;;;;;;5020418;28;20559;-64
2021/05/16 07:53:25;;;;;;;14.18;2.58;;;;;;;;;;5028156;28;20045;-64
2021/05/16 07:55:50;;;;;;;16.83;2.80;;;;;;;;;;5024320;28;20017;-65
2021/05/16 07:58:16;;;;;;;17.40;2.95;;;;;;;;;;5027984;28;20424;-66
2021/05/16 08:00:41;;;;;;;10.27;2.20;;;;;;;;;;5027842;28;20030;-64
2021/05/16 08:03:06;;;;;;;13.55;2.63;;;;;;;;;;5028329;28;20021;-66
2021/05/16 08:05:31;;;;;;;12.00;2.78;;;;;;;;;;5027626;28;20395;-64
2021/05/16 08:07:57;;;;;;;11.45;2.70;;;;;;;;;;5021053;28;20029;-64
2021/05/16 08:10:22;;;;;;;9.18;3.35;;;;;;;;;;5017801;28;20589;-66
2021/05/16 08:12:47;;;;;;;13.15;2.60;;;;;;;;;;5026048;28;20692;-64
2021/05/16 08:15:13;;;;;;;11.73;2.70;;;;;;;;;;5027780;28;20022;-65
2021/05/16 08:17:38;;;;;;;7.93;2.38;;;;;;;;;;5018913;28;20513;-65
2021/05/16 08:20:05;;;;;;;7.07;2.00;;;;;;;;;;5020151;28;20061;-65
2021/05/16 08:22:31;;;;;;;14.93;2.53;;;;;;;;;;5031786;28;20107;-65
2021/05/16 08:24:56;;;;;;;18.98;2.60;;;;;;;;;;5033018;28;20073;-64
2021/05/16 08:27:21;;;;;;;6.40;1.98;;;;;;;;;;5014848;28;20026;-64
2021/05/16 08:29:46;;;;;;;11.32;2.10;;;;;;;;;;5032394;28;20481;-64
2021/05/16 08:32:13;;;;;;;10.82;2.63;;;;;;;;;;5032657;28;20108;-64
2021/05/16 08:34:38;;;;;;;10.65;1.88;;;;;;;;;;5032687;28;20053;-65
2021/05/16 08:37:06;;;;;;;9.43;2.42;;;;;;;;;;5031368;28;20052;-64
2021/05/16 08:39:32;;;;;;;5.15;1.55;;;;;;;;;;5032066;28;20429;-63
2021/05/16 08:41:57;;;;;;;6.43;1.70;;;;;;;;;;5032333;28;20072;-66
2021/05/16 08:44:23;;;;;;;5.88;1.45;;;;;;;;;;5032243;28;20021;-65
2021/05/16 08:46:48;;;;;;;9.35;2.03;;;;;;;;;;5030920;28;20045;-64
2021/05/16 08:49:14;;;;;;;6.70;1.50;;;;;;;;;;5032170;28;20107;-64
2021/05/16 08:51:44;;;;;;;6.80;1.92;;;;;;;;;;5025774;28;20550;-64
2021/05/16 08:54:09;;;;;;;6.93;1.75;;;;;;;;;;5030791;28;20021;-67
2021/05/16 08:56:35;;;;;;;2.30;1.30;;;;;;;;;;5030026;28;20036;-64
2021/05/16 08:59:00;;;;;;;10.17;2.07;;;;;;;;;;5031987;28;20049;-66
2021/05/16 09:01:25;;;;;;;4.63;1.03;;;;;;;;;;5028739;28;20288;-64
2021/05/16 09:03:51;;;;;;;1.77;0.70;;;;;;;;;;5026945;28;20265;-64
2021/05/16 09:06:17;;;;;;;2.33;1.10;;;;;;;;;;5002123;28;20026;-67
2021/05/16 09:08:42;;;;;;;2.08;0.80;;;;;;;;;;5030268;28;20028;-66
2021/05/16 09:11:08;;;;;;;12.10;0.82;;;;;;;;;;5019859;28;20609;-65
2021/05/16 09:13:34;;;;;;;0.38;0.30;;;;;;;;;;5024250;28;20021;-64
2021/05/16 09:16:02;;;;;;;2.63;0.80;;;;;;;;;;5029912;28;20021;-64
2021/05/16 09:18:44;;;;;;;7.05;1.88;;;;;;;;;;5028096;28;20022;-65
2021/05/16 09:21:29;;;;;;;7.00;1.25;;;;;;;;;;5022751;28;20389;-65
2021/05/16 09:24:03;;;;;;;2.97;1.52;;;;;;;;;;5030044;28;20027;-65
2021/05/16 09:26:28;;;;;;;1.45;0.85;;;;;;;;;;5027215;28;20021;-64
2021/05/16 09:28:54;;;;;;;1.43;0.70;;;;;;;;;;5025598;28;20545;-64
2021/05/16 09:31:31;;;;;;;3.33;1.25;;;;;;;;;;5018572;28;20257;-64
2021/05/16 09:34:03;;;;;;;16.55;2.55;;;;;;;;;;5024858;28;20039;-65
2021/05/16 09:36:39;;;;;;;10.65;1.30;;;;;;;;;;5025413;28;20461;-65
2021/05/16 09:39:13;;;;;;;9.48;1.42;;;;;;;;;;5029266;28;20120;-64
2021/05/16 09:41:53;;;;;;;8.60;1.75;;;;;;;;;;5029207;28;20052;-63
2021/05/16 09:44:47;;;;;;;3.57;1.23;;;;;;;;;;5029322;28;20436;-64
2021/05/16 09:47:14;;;;;;;8.60;1.52;;;;;;;;;;5011692;28;20464;-64
2021/05/16 09:49:40;;;;;;;9.80;2.08;;;;;;;;;;5019886;28;20024;-67
2021/05/16 09:52:10;;;;;;;2.83;0.85;;;;;;;;;;5029208;28;20056;-65
2021/05/16 09:54:54;;;;;;;4.05;1.40;;;;;;;;;;5027236;28;20016;-66
2021/05/16 09:57:19;;;;;;;3.10;0.90;;;;;;;;;;5018310;28;20068;-65
2021/05/16 09:59:45;;;;;;;7.38;1.75;;;;;;;;;;5012412;28;20109;-64
2021/05/16 10:02:11;;;;;;;6.88;0.95;;;;;;;;;;5029666;28;20477;-65
2021/05/16 10:04:37;;;;;;;11.35;1.52;;;;;;;;;;5028827;28;20022;-65
2021/05/16 10:07:02;;;;;;;8.18;1.95;;;;;;;;;;5029120;28;20059;-67
2021/05/16 10:09:27;;;;;;;3.03;1.30;;;;;;;;;;5025304;28;20093;-64
2021/05/16 10:11:52;;;;;;;6.87;1.63;;;;;;;;;;5020957;28;20022;-64
2021/05/16 10:14:21;;;;;;;10.38;1.23;;;;;;;;;;5025192;28;20280;-64
2021/05/16 10:16:47;;;;;;;6.97;1.40;;;;;;;;;;5028914;28;20033;-64
2021/05/16 10:19:15;;;;;;;8.65;2.70;;;;;;;;;;5027394;28;20087;-65
2021/05/16 10:21:41;;;;;;;4.65;1.05;;;;;;;;;;5026733;28;20124;-65
2021/05/16 10:24:16;;;;;;;6.80;1.75;;;;;;;;;;5030271;28;20529;-64
2021/05/16 10:26:41;;;;;;;7.53;1.40;;;;;;;;;;5030374;28;20025;-64
2021/05/16 10:29:16;;;;;;;7.60;1.70;;;;;;;;;;5030674;28;20017;-65
2021/05/16 10:31:41;;;;;;;8.55;2.13;;;;;;;;;;5030294;28;20028;-64
2021/05/16 10:34:39;;;;;;;8.33;1.60;;;;;;;;;;5031011;28;20064;-65
2021/05/16 10:37:04;;;;;;;5.45;1.50;;;;;;;;;;5009367;28;20830;-64
2021/05/16 10:39:41;;;;;;;3.67;1.33;;;;;;;;;;5029159;28;20033;-66
2021/05/16 10:42:14;;;;;;;11.55;2.10;;;;;;;;;;5022135;28;20477;-65
2021/05/16 10:44:55;;;;;;;12.27;1.67;;;;;;;;;;5030257;28;20029;-64
2021/05/16 10:47:59;;;;;;;16.10;2.83;;;;;;;;;;5030142;28;20025;-64
2021/05/16 10:50:24;;;;;;;12.02;1.48;;;;;;;;;;4930707;29;20051;-65
2021/05/16 10:52:58;;;;;;;8.60;1.38;;;;;;;;;;4916329;29;20123;-64
2021/05/16 10:55:31;;;;;;;7.88;1.70;;;;;;;;;;4971121;28;20679;-65
2021/05/16 10:57:56;;;;;;;11.18;2.30;;;;;;;;;;5029305;28;20025;-64
2021/05/16 11:00:26;;;;;;;8.18;1.95;;;;;;;;;;5021771;28;20361;-65
2021/05/16 11:03:02;;;;;;;7.63;2.38;;;;;;;;;;5030264;28;20056;-64
2021/05/16 11:05:39;;;;;;;14.18;1.90;;;;;;;;;;5029381;28;20025;-64
2021/05/16 11:08:05;;;;;;;15.18;3.60;;;;;;;;;;5029538;28;20025;-64
2021/05/16 11:10:30;;;;;;;13.05;2.00;;;;;;;;;;5027204;28;20206;-63
2021/05/16 11:13:08;;;;;;;11.90;2.00;;;;;;;;;;5020565;28;20060;-65
2021/05/16 11:15:33;;;;;;;11.88;2.50;;;;;;;;;;5029182;28;20010;-65
2021/05/16 11:17:58;;;;;;;6.72;1.50;;;;;;;;;;5029602;28;20028;-65
2021/05/16 11:20:23;;;;;;;6.53;1.60;;;;;;;;;;5024752;28;20042;-65
2021/05/16 11:22:48;;;;;;;9.90;1.27;;;;;;;;;;5019704;28;20260;-65
2021/05/16 11:25:24;;;;;;;5.70;1.30;;;;;;;;;;5029757;28;20263;-66
2021/05/16 11:27:49;;;;;;;8.43;0.68;;;;;;;;;;5029323;28;20275;-66
2021/05/16 11:30:15;;;;;;;10.07;1.70;;;;;;;;;;5030003;28;20017;-65
2021/05/16 11:32:41;;;;;;;10.85;2.45;;;;;;;;;;5029329;28;20033;-65
2021/05/16 11:35:08;;;;;;;8.88;1.92;;;;;;;;;;5029517;28;20032;-65
2021/05/16 11:37:33;;;;;;;8.15;1.60;;;;;;;;;;5029137;28;20124;-64
2021/05/16 11:40:11;;;;;;;8.77;2.03;;;;;;;;;;5028055;28;20716;-64
2021/05/16 11:42:39;;;;;;;6.18;1.98;;;;;;;;;;5018903;28;20378;-65
2021/05/16 11:45:05;;;;;;;9.43;1.70;;;;;;;;;;5026311;28;20466;-65
2021/05/16 11:47:40;;;;;;;12.48;2.20;;;;;;;;;;5027230;28;20012;-64
2021/05/16 11:50:06;;;;;;;5.10;1.20;;;;;;;;;;5025485;28;20505;-66
2021/05/16 11:52:31;;;;;;;9.82;1.73;;;;;;;;;;5027729;28;20043;-65
2021/05/16 11:55:00;;;;;;;8.98;1.67;;;;;;;;;;5030853;28;20104;-64
2021/05/16 11:57:25;;;;;;;8.70;2.65;;;;;;;;;;5033013;28;20080;-65
2021/05/16 11:59:50;;;;;;;9.20;1.60;;;;;;;;;;5031823;28;20470;-64
2021/05/16 12:02:16;;;;;;;6.22;1.88;;;;;;;;;;5033084;28;20032;-65
2021/05/16 12:04:41;;;;;;;7.32;1.30;;;;;;;;;;5033174;28;20044;-65
2021/05/16 12:07:06;;;;;;;8.50;1.63;;;;;;;;;;5032556;28;20517;-65
2021/05/16 12:09:39;;;;;;;4.53;1.15;;;;;;;;;;5033261;28;20103;-65
2021/05/16 12:12:15;;;;;;;7.63;1.35;;;;;;;;;;5032957;28;20032;-65
2021/05/16 12:14:42;;;;;;;10.48;1.80;;;;;;;;;;5032847;28;20449;-65
2021/05/16 12:17:07;;;;;;;5.60;0.98;;;;;;;;;;5031960;28;20589;-65
2021/05/16 12:19:37;;;;;;;6.43;1.20;;;;;;;;;;5028343;28;20025;-65
2021/05/16 12:22:10;;;;;;;8.02;1.40;;;;;;;;;;5032789;28;20283;-65
2021/05/16 12:24:37;;;;;;;6.78;1.15;;;;;;;;;;5032956;28;20543;-64
2021/05/16 12:27:06;;;;;;;4.80;1.42;;;;;;;;;;5032114;28;20505;-65
2021/05/16 12:29:32;;;;;;;6.93;1.77;;;;;;;;;;5032519;28;20355;-64
2021/05/16 12:31:57;;;;;;;5.97;1.60;;;;;;;;;;5032558;28;20032;-64
2021/05/16 12:34:23;;;;;;;6.25;1.40;;;;;;;;;;5032539;28;20482;-64
2021/05/16 12:36:48;;;;;;;6.70;1.10;;;;;;;;;;5055015;22;20056;-68
2021/05/16 12:39:13;;;;;;;5.33;1.23;;;;;;;;;;5032891;28;20076;-68
2021/05/16 12:41:38;;;;;;;3.95;1.10;;;;;;;;;;5032174;28;20292;-68
2021/05/16 12:44:11;;;;;;;5.53;0.80;;;;;;;;;;5032184;28;20095;-66
2021/05/16 12:46:44;;;;;;;7.15;1.33;;;;;;;;;;5031991;28;20252;-66
2021/05/16 12:49:10;;;;;;;7.88;1.20;;;;;;;;;;5032196;28;20022;-66
2021/05/16 12:51:35;;;;;;;2.65;1.00;;;;;;;;;;5032168;28;20055;-66
2021/05/16 12:54:14;;;;;;;8.43;1.00;;;;;;;;;;5032663;28;20029;-66
2021/05/16 12:56:40;;;;;;;4.20;0.70;;;;;;;;;;5027024;28;20417;-67
2021/05/16 12:59:07;;;;;;;4.05;1.10;;;;;;;;;;5031989;28;20485;-67
2021/05/16 13:01:35;;;;;;;3.22;0.82;;;;;;;;;;5031892;28;20044;-67
2021/05/16 13:04:02;;;;;;;3.63;0.60;;;;;;;;;;5032294;28;20020;-68
2021/05/16 13:06:31;;;;;;;2.22;0.70;;;;;;;;;;5031178;28;20382;-68
2021/05/16 13:08:56;;;;;;;2.20;0.50;;;;;;;;;;5025721;28;20032;-67
2021/05/16 13:11:23;;;;;;;4.65;1.27;;;;;;;;;;5026377;28;20096;-68
2021/05/16 13:13:53;;;;;;;5.50;1.08;;;;;;;;;;5031050;28;20485;-67
2021/05/16 13:16:18;;;;;;;6.80;0.75;;;;;;;;;;5027684;28;20520;-67
2021/05/16 13:18:44;;;;;;;4.77;1.00;;;;;;;;;;5030993;28;20038;-67
2021/05/16 13:21:09;;;;;;;3.22;1.05;;;;;;;;;;5026554;28;20838;-67
2021/05/16 13:23:35;;;;;;;5.10;0.87;;;;;;;;;;5022381;28;20025;-67
2021/05/16 13:26:00;;;;;;;4.23;0.90;;;;;;;;;;5012202;28;20014;-67
2021/05/16 13:28:29;;;;;;;4.37;0.70;;;;;;;;;;5023298;28;20793;-67
2021/05/16 13:31:01;;;;;;;3.13;0.68;;;;;;;;;;5032501;28;20282;-67
2021/05/16 13:33:32;;;;;;;5.35;0.90;;;;;;;;;;5032210;28;20028;-67
2021/05/16 13:35:58;;;;;;;8.93;1.70;;;;;;;;;;5031935;28;20090;-67
2021/05/16 13:38:24;;;;;;;3.55;1.17;;;;;;;;;;5031896;28;20033;-67
2021/05/16 13:40:49;;;;;;;6.30;1.10;;;;;;;;;;5031786;28;20099;-67
2021/05/16 13:43:16;;;;;;;4.73;1.27;;;;;;;;;;5032006;28;20370;-67
2021/05/16 13:45:41;;;;;;;12.18;1.50;;;;;;;;;;5031531;28;20781;-67
2021/05/16 13:48:06;;;;;;;4.60;0.63;;;;;;;;;;5031745;28;20017;-67
2021/05/16 13:50:31;;;;;;;4.20;0.80;;;;;;;;;;5031831;28;20252;-67
2021/05/16 13:52:56;;;;;;;4.68;0.88;;;;;;;;;;5031891;28;20586;-68
2021/05/16 13:55:22;;;;;;;3.03;0.50;;;;;;;;;;5031961;28;20386;-68
2021/05/16 13:57:47;;;;;;;2.35;0.40;;;;;;;;;;5031464;28;20366;-67
2021/05/16 14:00:13;;;;;;;1.40;0.30;;;;;;;;;;5031615;28;20013;-67
2021/05/16 14:02:38;;;;;;;1.95;0.30;;;;;;;;;;5031405;28;20317;-67
2021/05/16 14:05:03;;;;;;;0.60;0.20;;;;;;;;;;5031743;28;20063;-67
2021/05/16 14:07:29;;;;;;;1.70;0.25;;;;;;;;;;5031266;28;20272;-67
2021/05/16 14:09:54;;;;;;;1.08;0.20;;;;;;;;;;5031667;28;20026;-67
2021/05/16 14:12:19;;;;;;;2.43;0.40;;;;;;;;;;5031749;28;20018;-67
2021/05/16 14:14:46;;;;;;;3.10;0.50;;;;;;;;;;5031264;28;20260;-67
2021/05/16 14:17:11;;;;;;;2.20;0.40;;;;;;;;;;5008442;28;20804;-67
2021/05/16 14:19:37;;;;;;;2.33;0.40;;;;;;;;;;5023580;28;20037;-67
2021/05/16 14:22:03;;;;;;;2.08;0.52;;;;;;;;;;5009901;28;20276;-67
2021/05/16 14:24:28;;;;;;;1.75;0.20;;;;;;;;;;5023480;28;20022;-67
2021/05/16 14:26:53;;;;;;;1.50;0.28;;;;;;;;;;5011009;28;20102;-67
2021/05/16 14:29:18;;;;;;;1.13;0.35;;;;;;;;;;5029451;28;20045;-67
2021/05/16 14:31:43;;;;;;;2.97;0.30;;;;;;;;;;5030847;28;20378;-67
2021/05/16 14:34:09;;;;;;;2.03;0.37;;;;;;;;;;5031132;28;20275;-67